sensor_id;sensor_type;location;lat;lon;timestamp;P1;durP1;ratioP1;P2;durP2;ratioP2
28796;SDS011;24974;54.444;18.560;2023-07-31T00:00:10;6.43;;;3.45;;
28796;SDS011;24974;54.444;18.560;2023-07-31T00:02:42;5.47;;;3.72;;
28796;SDS011;24974;54.444;18.560;2023-07-31T00:05:13;4.78;;;3.33;;
28796;SDS011;24974;54.444;18.560;2023-07-31T00:07:44;6.47;;;3.60;;
28796;SDS011;24974;54.444;18.560;2023-07-31T00:10:15;8.02;;;3.70;;
28796;SDS011;24974;54.444;18.560;2023-07-31T00:12:46;8.05;;;3.35;;
28796;SDS011;24974;54.444;18.560;2023-07-31T00:15:16;6.63;;;3.88;;
28796;SDS011;24974;54.444;18.560;2023-07-31T00:17:47;11.90;;;3.50;;
28796;SDS011;24974;54.444;18.560;2023-07-31T00:20:18;8.20;;;3.75;;
28796;SDS011;24974;54.444;18.560;2023-07-31T00:22:49;7.97;;;3.75;;
28796;SDS011;24974;54.444;18.560;2023-07-31T00:25:20;4.90;;;3.33;;
28796;SDS011;24974;54.444;18.560;2023-07-31T00:27:51;8.70;;;3.67;;
28796;SDS011;24974;54.444;18.560;2023-07-31T00:30:21;6.30;;;3.40;;
28796;SDS011;24974;54.444;18.560;2023-07-31T00:32:52;8.13;;;3.75;;
28796;SDS011;24974;54.444;18.560;2023-07-31T00:35:23;8.40;;;3.83;;
28796;SDS011;24974;54.444;18.560;2023-07-31T00:37:55;9.32;;;3.67;;
28796;SDS011;24974;54.444;18.560;2023-07-31T00:40:29;9.10;;;3.63;;
28796;SDS011;24974;54.444;18.560;2023-07-31T00:43:04;10.00;;;3.88;;
28796;SDS011;24974;54.444;18.560;2023-07-31T00:45:35;5.55;;;3.53;;
28796;SDS011;24974;54.444;18.560;2023-07-31T00:48:06;9.15;;;3.40;;
28796;SDS011;24974;54.444;18.560;2023-07-31T00:50:38;5.97;;;3.55;;
28796;SDS011;24974;54.444;18.560;2023-07-31T00:53:09;6.63;;;3.97;;
28796;SDS011;24974;54.444;18.560;2023-07-31T00:55:40;5.20;;;3.45;;
28796;SDS011;24974;54.444;18.560;2023-07-31T00:58:12;7.82;;;3.55;;
28796;SDS011;24974;54.444;18.560;2023-07-31T01:00:43;9.00;;;3.25;;
28796;SDS011;24974;54.444;18.560;2023-07-31T01:03:14;7.53;;;3.85;;
28796;SDS011;24974;54.444;18.560;2023-07-31T01:11:29;11.35;;;4.38;;
28796;SDS011;24974;54.444;18.560;2023-07-31T01:14:01;7.07;;;4.13;;
28796;SDS011;24974;54.444;18.560;2023-07-31T01:16:32;10.60;;;4.63;;
28796;SDS011;24974;54.444;18.560;2023-07-31T01:19:03;9.52;;;3.88;;
28796;SDS011;24974;54.444;18.560;2023-07-31T01:24:18;5.57;;;3.85;;
28796;SDS011;24974;54.444;18.560;2023-07-31T01:26:56;7.55;;;3.63;;
28796;SDS011;24974;54.444;18.560;2023-07-31T01:29:43;4.75;;;3.28;;
28796;SDS011;24974;54.444;18.560;2023-07-31T01:32:21;5.35;;;3.72;;
28796;SDS011;24974;54.444;18.560;2023-07-31T01:34:53;8.18;;;3.90;;
28796;SDS011;24974;54.444;18.560;2023-07-31T01:37:33;8.15;;;3.95;;
28796;SDS011;24974;54.444;18.560;2023-07-31T01:40:04;9.05;;;3.90;;
28796;SDS011;24974;54.444;18.560;2023-07-31T01:42:36;6.18;;;3.40;;
28796;SDS011;24974;54.444;18.560;2023-07-31T01:45:07;5.32;;;3.70;;
28796;SDS011;24974;54.444;18.560;2023-07-31T01:47:40;6.07;;;4.00;;
28796;SDS011;24974;54.444;18.560;2023-07-31T01:50:11;6.10;;;3.42;;
28796;SDS011;24974;54.444;18.560;2023-07-31T01:52:41;5.88;;;3.22;;
28796;SDS011;24974;54.444;18.560;2023-07-31T01:55:12;5.43;;;2.65;;
28796;SDS011;24974;54.444;18.560;2023-07-31T01:57:43;4.15;;;2.40;;
28796;SDS011;24974;54.444;18.560;2023-07-31T02:00:14;4.38;;;2.33;;
28796;SDS011;24974;54.444;18.560;2023-07-31T02:02:45;4.47;;;3.00;;
28796;SDS011;24974;54.444;18.560;2023-07-31T02:05:16;3.75;;;2.47;;
28796;SDS011;24974;54.444;18.560;2023-07-31T02:07:47;4.93;;;2.35;;
28796;SDS011;24974;54.444;18.560;2023-07-31T02:10:18;3.92;;;2.20;;
28796;SDS011;24974;54.444;18.560;2023-07-31T02:12:49;5.35;;;2.83;;
28796;SDS011;24974;54.444;18.560;2023-07-31T02:15:20;3.95;;;2.58;;
28796;SDS011;24974;54.444;18.560;2023-07-31T02:17:51;6.30;;;2.63;;
28796;SDS011;24974;54.444;18.560;2023-07-31T02:20:22;5.90;;;2.63;;
28796;SDS011;24974;54.444;18.560;2023-07-31T02:22:53;4.03;;;2.40;;
28796;SDS011;24974;54.444;18.560;2023-07-31T02:25:24;7.18;;;3.08;;
28796;SDS011;24974;54.444;18.560;2023-07-31T02:27:55;8.75;;;3.33;;
28796;SDS011;24974;54.444;18.560;2023-07-31T02:30:25;8.85;;;2.80;;
28796;SDS011;24974;54.444;18.560;2023-07-31T02:32:56;6.15;;;2.72;;
28796;SDS011;24974;54.444;18.560;2023-07-31T02:35:27;5.40;;;2.95;;
28796;SDS011;24974;54.444;18.560;2023-07-31T02:37:58;4.25;;;2.38;;
28796;SDS011;24974;54.444;18.560;2023-07-31T02:40:29;6.68;;;2.90;;
28796;SDS011;24974;54.444;18.560;2023-07-31T02:43:00;4.20;;;2.85;;
28796;SDS011;24974;54.444;18.560;2023-07-31T02:45:31;6.28;;;2.90;;
28796;SDS011;24974;54.444;18.560;2023-07-31T02:48:02;10.93;;;3.35;;
28796;SDS011;24974;54.444;18.560;2023-07-31T02:50:33;0.95;;;0.75;;
28796;SDS011;24974;54.444;18.560;2023-07-31T02:53:03;4.72;;;2.80;;
28796;SDS011;24974;54.444;18.560;2023-07-31T02:55:34;9.20;;;3.00;;
28796;SDS011;24974;54.444;18.560;2023-07-31T02:58:05;6.75;;;3.10;;
28796;SDS011;24974;54.444;18.560;2023-07-31T03:00:40;6.25;;;2.47;;
28796;SDS011;24974;54.444;18.560;2023-07-31T03:03:12;8.52;;;3.47;;
28796;SDS011;24974;54.444;18.560;2023-07-31T03:05:43;6.90;;;2.72;;
28796;SDS011;24974;54.444;18.560;2023-07-31T03:08:14;9.00;;;3.60;;
28796;SDS011;24974;54.444;18.560;2023-07-31T03:10:45;12.60;;;3.17;;
28796;SDS011;24974;54.444;18.560;2023-07-31T03:13:16;6.95;;;3.10;;
28796;SDS011;24974;54.444;18.560;2023-07-31T03:15:46;9.35;;;4.03;;
28796;SDS011;24974;54.444;18.560;2023-07-31T03:18:17;6.68;;;2.80;;
28796;SDS011;24974;54.444;18.560;2023-07-31T03:20:48;7.18;;;3.80;;
28796;SDS011;24974;54.444;18.560;2023-07-31T03:23:20;8.00;;;2.80;;
28796;SDS011;24974;54.444;18.560;2023-07-31T03:25:58;7.05;;;3.65;;
28796;SDS011;24974;54.444;18.560;2023-07-31T03:28:32;7.18;;;2.65;;
28796;SDS011;24974;54.444;18.560;2023-07-31T03:31:03;8.27;;;3.70;;
28796;SDS011;24974;54.444;18.560;2023-07-31T03:33:34;6.13;;;3.30;;
28796;SDS011;24974;54.444;18.560;2023-07-31T03:36:05;8.45;;;3.85;;
28796;SDS011;24974;54.444;18.560;2023-07-31T03:38:36;12.68;;;4.22;;
28796;SDS011;24974;54.444;18.560;2023-07-31T03:41:07;7.28;;;3.90;;
28796;SDS011;24974;54.444;18.560;2023-07-31T03:43:38;9.55;;;3.83;;
28796;SDS011;24974;54.444;18.560;2023-07-31T03:46:08;10.55;;;3.28;;
28796;SDS011;24974;54.444;18.560;2023-07-31T03:48:39;12.73;;;4.32;;
28796;SDS011;24974;54.444;18.560;2023-07-31T03:51:10;8.98;;;3.53;;
28796;SDS011;24974;54.444;18.560;2023-07-31T03:53:41;8.55;;;3.55;;
28796;SDS011;24974;54.444;18.560;2023-07-31T03:56:12;10.88;;;3.88;;
28796;SDS011;24974;54.444;18.560;2023-07-31T03:58:42;11.45;;;4.00;;
28796;SDS011;24974;54.444;18.560;2023-07-31T04:01:13;7.18;;;3.95;;
28796;SDS011;24974;54.444;18.560;2023-07-31T04:03:44;10.68;;;3.70;;
28796;SDS011;24974;54.444;18.560;2023-07-31T04:06:15;9.32;;;3.60;;
28796;SDS011;24974;54.444;18.560;2023-07-31T04:08:48;9.00;;;4.05;;
28796;SDS011;24974;54.444;18.560;2023-07-31T04:11:19;9.73;;;4.07;;
28796;SDS011;24974;54.444;18.560;2023-07-31T04:13:50;7.53;;;3.75;;
28796;SDS011;24974;54.444;18.560;2023-07-31T04:16:20;11.05;;;4.00;;
28796;SDS011;24974;54.444;18.560;2023-07-31T04:18:51;10.98;;;3.90;;
28796;SDS011;24974;54.444;18.560;2023-07-31T04:21:22;12.00;;;4.97;;
28796;SDS011;24974;54.444;18.560;2023-07-31T04:23:53;12.30;;;3.83;;
28796;SDS011;24974;54.444;18.560;2023-07-31T04:26:26;14.23;;;3.70;;
28796;SDS011;24974;54.444;18.560;2023-07-31T04:28:57;9.27;;;3.67;;
28796;SDS011;24974;54.444;18.560;2023-07-31T04:31:28;8.63;;;4.00;;
28796;SDS011;24974;54.444;18.560;2023-07-31T04:33:58;13.50;;;4.28;;
28796;SDS011;24974;54.444;18.560;2023-07-31T04:36:29;10.05;;;4.25;;
28796;SDS011;24974;54.444;18.560;2023-07-31T04:39:00;10.95;;;3.22;;
28796;SDS011;24974;54.444;18.560;2023-07-31T04:41:31;9.82;;;3.35;;
28796;SDS011;24974;54.444;18.560;2023-07-31T04:44:02;10.88;;;3.42;;
28796;SDS011;24974;54.444;18.560;2023-07-31T04:46:36;7.85;;;3.47;;
28796;SDS011;24974;54.444;18.560;2023-07-31T04:49:07;8.13;;;3.60;;
28796;SDS011;24974;54.444;18.560;2023-07-31T04:51:38;10.07;;;3.13;;
28796;SDS011;24974;54.444;18.560;2023-07-31T04:54:09;7.63;;;2.88;;
28796;SDS011;24974;54.444;18.560;2023-07-31T04:56:40;7.90;;;3.42;;
28796;SDS011;24974;54.444;18.560;2023-07-31T04:59:11;8.30;;;2.78;;
28796;SDS011;24974;54.444;18.560;2023-07-31T05:01:42;12.70;;;2.90;;
28796;SDS011;24974;54.444;18.560;2023-07-31T05:04:13;9.85;;;3.05;;
28796;SDS011;24974;54.444;18.560;2023-07-31T05:06:45;10.55;;;3.35;;
28796;SDS011;24974;54.444;18.560;2023-07-31T05:09:16;6.25;;;2.50;;
28796;SDS011;24974;54.444;18.560;2023-07-31T05:11:46;8.82;;;3.20;;
28796;SDS011;24974;54.444;18.560;2023-07-31T05:14:17;7.05;;;2.63;;
28796;SDS011;24974;54.444;18.560;2023-07-31T05:16:48;7.78;;;2.78;;
28796;SDS011;24974;54.444;18.560;2023-07-31T05:19:19;9.68;;;3.35;;
28796;SDS011;24974;54.444;18.560;2023-07-31T05:21:50;7.30;;;3.08;;
28796;SDS011;24974;54.444;18.560;2023-07-31T05:24:21;10.52;;;3.10;;
28796;SDS011;24974;54.444;18.560;2023-07-31T05:26:51;8.48;;;3.22;;
28796;SDS011;24974;54.444;18.560;2023-07-31T05:29:22;13.77;;;4.10;;
28796;SDS011;24974;54.444;18.560;2023-07-31T05:31:53;8.18;;;2.95;;
28796;SDS011;24974;54.444;18.560;2023-07-31T05:34:24;9.98;;;2.88;;
28796;SDS011;24974;54.444;18.560;2023-07-31T05:36:55;10.25;;;3.55;;
28796;SDS011;24974;54.444;18.560;2023-07-31T05:39:25;5.10;;;2.40;;
28796;SDS011;24974;54.444;18.560;2023-07-31T05:41:56;12.05;;;3.30;;
28796;SDS011;24974;54.444;18.560;2023-07-31T05:44:27;10.85;;;2.65;;
28796;SDS011;24974;54.444;18.560;2023-07-31T05:46:57;11.95;;;2.92;;
28796;SDS011;24974;54.444;18.560;2023-07-31T05:49:28;8.77;;;3.00;;
28796;SDS011;24974;54.444;18.560;2023-07-31T05:51:59;11.30;;;2.35;;
28796;SDS011;24974;54.444;18.560;2023-07-31T05:54:31;9.20;;;2.60;;
28796;SDS011;24974;54.444;18.560;2023-07-31T05:57:02;9.60;;;2.72;;
28796;SDS011;24974;54.444;18.560;2023-07-31T05:59:33;7.78;;;2.20;;
28796;SDS011;24974;54.444;18.560;2023-07-31T06:02:04;9.88;;;2.50;;
28796;SDS011;24974;54.444;18.560;2023-07-31T06:04:36;7.32;;;2.25;;
28796;SDS011;24974;54.444;18.560;2023-07-31T06:07:07;11.43;;;2.20;;
28796;SDS011;24974;54.444;18.560;2023-07-31T06:09:38;12.77;;;2.80;;
28796;SDS011;24974;54.444;18.560;2023-07-31T06:12:09;7.65;;;2.40;;
28796;SDS011;24974;54.444;18.560;2023-07-31T06:14:39;10.60;;;2.53;;
28796;SDS011;24974;54.444;18.560;2023-07-31T06:17:10;7.55;;;2.17;;
28796;SDS011;24974;54.444;18.560;2023-07-31T06:19:41;6.32;;;2.08;;
28796;SDS011;24974;54.444;18.560;2023-07-31T06:22:12;5.72;;;1.90;;
28796;SDS011;24974;54.444;18.560;2023-07-31T06:24:43;9.65;;;2.25;;
28796;SDS011;24974;54.444;18.560;2023-07-31T06:27:15;9.18;;;2.25;;
28796;SDS011;24974;54.444;18.560;2023-07-31T06:29:46;7.25;;;2.17;;
28796;SDS011;24974;54.444;18.560;2023-07-31T06:32:17;12.23;;;2.10;;
28796;SDS011;24974;54.444;18.560;2023-07-31T06:34:48;7.32;;;1.98;;
28796;SDS011;24974;54.444;18.560;2023-07-31T06:37:18;8.95;;;2.17;;
28796;SDS011;24974;54.444;18.560;2023-07-31T06:39:49;10.00;;;2.40;;
28796;SDS011;24974;54.444;18.560;2023-07-31T06:42:20;6.70;;;2.13;;
28796;SDS011;24974;54.444;18.560;2023-07-31T06:44:51;6.93;;;2.35;;
28796;SDS011;24974;54.444;18.560;2023-07-31T06:47:22;11.27;;;2.47;;
28796;SDS011;24974;54.444;18.560;2023-07-31T06:49:53;4.75;;;1.90;;
28796;SDS011;24974;54.444;18.560;2023-07-31T06:52:24;10.52;;;2.17;;
28796;SDS011;24974;54.444;18.560;2023-07-31T06:55:01;12.27;;;2.50;;
28796;SDS011;24974;54.444;18.560;2023-07-31T06:57:34;5.57;;;1.98;;
28796;SDS011;24974;54.444;18.560;2023-07-31T07:00:05;7.78;;;1.90;;
28796;SDS011;24974;54.444;18.560;2023-07-31T07:02:37;10.85;;;2.53;;
28796;SDS011;24974;54.444;18.560;2023-07-31T07:05:08;10.55;;;2.08;;
28796;SDS011;24974;54.444;18.560;2023-07-31T07:07:39;6.45;;;2.28;;
28796;SDS011;24974;54.444;18.560;2023-07-31T07:10:11;6.85;;;1.85;;
28796;SDS011;24974;54.444;18.560;2023-07-31T07:12:41;9.60;;;2.15;;
28796;SDS011;24974;54.444;18.560;2023-07-31T07:15:12;8.43;;;2.03;;
28796;SDS011;24974;54.444;18.560;2023-07-31T07:17:43;7.15;;;1.90;;
28796;SDS011;24974;54.444;18.560;2023-07-31T07:20:14;8.45;;;1.80;;
28796;SDS011;24974;54.444;18.560;2023-07-31T07:22:45;8.30;;;1.83;;
28796;SDS011;24974;54.444;18.560;2023-07-31T07:25:16;8.18;;;1.98;;
28796;SDS011;24974;54.444;18.560;2023-07-31T07:27:47;3.72;;;1.52;;
28796;SDS011;24974;54.444;18.560;2023-07-31T07:30:18;9.23;;;1.77;;
28796;SDS011;24974;54.444;18.560;2023-07-31T07:32:50;4.72;;;1.55;;
28796;SDS011;24974;54.444;18.560;2023-07-31T07:35:21;7.10;;;1.48;;
28796;SDS011;24974;54.444;18.560;2023-07-31T07:37:52;9.98;;;2.08;;
28796;SDS011;24974;54.444;18.560;2023-07-31T07:40:24;5.45;;;1.50;;
28796;SDS011;24974;54.444;18.560;2023-07-31T07:42:55;5.57;;;2.03;;
28796;SDS011;24974;54.444;18.560;2023-07-31T07:45:25;5.45;;;1.77;;
28796;SDS011;24974;54.444;18.560;2023-07-31T07:47:56;4.07;;;1.40;;
28796;SDS011;24974;54.444;18.560;2023-07-31T07:50:28;3.95;;;1.42;;
28796;SDS011;24974;54.444;18.560;2023-07-31T07:52:58;4.03;;;1.30;;
28796;SDS011;24974;54.444;18.560;2023-07-31T07:55:29;5.53;;;1.40;;
28796;SDS011;24974;54.444;18.560;2023-07-31T07:58:00;6.15;;;1.65;;
28796;SDS011;24974;54.444;18.560;2023-07-31T08:00:31;4.10;;;1.45;;
28796;SDS011;24974;54.444;18.560;2023-07-31T08:03:02;5.57;;;1.67;;
28796;SDS011;24974;54.444;18.560;2023-07-31T08:05:33;3.83;;;1.50;;
